sensor_id;sensor_type;location;lat;lon;timestamp;pressure;altitude;pressure_sealevel;temperature
76009;BMP280;64700;52.130;21.270;2024-03-07T00:02:09;101570.66;;;20.28
76009;BMP280;64700;52.130;21.270;2024-03-07T00:04:34;101578.03;;;20.28
76009;BMP280;64700;52.130;21.270;2024-03-07T00:07:03;101577.72;;;20.26
76009;BMP280;64700;52.130;21.270;2024-03-07T00:09:32;101577.72;;;20.26
76009;BMP280;64700;52.130;21.270;2024-03-07T00:11:57;101580.00;;;20.27
76009;BMP280;64700;52.130;21.270;2024-03-07T00:14:23;101575.78;;;20.26
76009;BMP280;64700;52.130;21.270;2024-03-07T00:16:52;101578.16;;;20.24
76009;BMP280;64700;52.130;21.270;2024-03-07T00:19:17;101576.19;;;20.25
76009;BMP280;64700;52.130;21.270;2024-03-07T00:21:42;101577.38;;;20.24
76009;BMP280;64700;52.130;21.270;2024-03-07T00:24:08;101578.59;;;20.23
76009;BMP280;64700;52.130;21.270;2024-03-07T00:26:33;101568.16;;;20.21
76009;BMP280;64700;52.130;21.270;2024-03-07T00:28:58;101570.88;;;20.21
76009;BMP280;64700;52.130;21.270;2024-03-07T00:31:24;101570.88;;;20.21
76009;BMP280;64700;52.130;21.270;2024-03-07T00:33:49;101571.66;;;20.22
76009;BMP280;64700;52.130;21.270;2024-03-07T00:36:14;101579.03;;;20.21
76009;BMP280;64700;52.130;21.270;2024-03-07T00:38:40;101572.84;;;20.21
76009;BMP280;64700;52.130;21.270;2024-03-07T00:41:05;101567.09;;;20.19
76009;BMP280;64700;52.130;21.270;2024-03-07T00:43:31;101568.59;;;20.20
76009;BMP280;64700;52.130;21.270;2024-03-07T00:45:56;101571.72;;;20.18
76009;BMP280;64700;52.130;21.270;2024-03-07T00:48:21;101576.41;;;20.18
76009;BMP280;64700;52.130;21.270;2024-03-07T00:50:46;101577.94;;;20.19
76009;BMP280;64700;52.130;21.270;2024-03-07T00:53:11;101567.50;;;20.17
76009;BMP280;64700;52.130;21.270;2024-03-07T00:55:37;101573.69;;;20.18
76009;BMP280;64700;52.130;21.270;2024-03-07T00:58:02;101572.91;;;20.17
76009;BMP280;64700;52.130;21.270;2024-03-07T01:00:28;101575.63;;;20.17
76009;BMP280;64700;52.130;21.270;2024-03-07T01:02:53;101577.59;;;20.17
76009;BMP280;64700;52.130;21.270;2024-03-07T01:05:18;101574.88;;;20.17
76009;BMP280;64700;52.130;21.270;2024-03-07T01:07:44;101566.41;;;20.15
76009;BMP280;64700;52.130;21.270;2024-03-07T01:10:11;101572.56;;;20.15
76009;BMP280;64700;52.130;21.270;2024-03-07T01:12:36;101564.44;;;20.15
76009;BMP280;64700;52.130;21.270;2024-03-07T01:15:01;101560.22;;;20.14
76009;BMP280;64700;52.130;21.270;2024-03-07T01:17:29;101567.59;;;20.14
76009;BMP280;64700;52.130;21.270;2024-03-07T01:19:54;101568.78;;;20.13
76009;BMP280;64700;52.130;21.270;2024-03-07T01:22:19;101565.31;;;20.12
76009;BMP280;64700;52.130;21.270;2024-03-07T01:24:45;101559.88;;;20.12
76009;BMP280;64700;52.130;21.270;2024-03-07T01:27:10;101564.53;;;20.12
76009;BMP280;64700;52.130;21.270;2024-03-07T01:29:35;101567.25;;;20.12
76009;BMP280;64700;52.130;21.270;2024-03-07T01:32:00;101560.63;;;20.13
76009;BMP280;64700;52.130;21.270;2024-03-07T01:34:26;101565.00;;;20.10
76009;BMP280;64700;52.130;21.270;2024-03-07T01:36:52;101567.72;;;20.10
76009;BMP280;64700;52.130;21.270;2024-03-07T01:39:17;101573.88;;;20.11
76009;BMP280;64700;52.130;21.270;2024-03-07T01:41:43;101579.31;;;20.11
76009;BMP280;64700;52.130;21.270;2024-03-07T01:44:08;101582.47;;;20.09
76009;BMP280;64700;52.130;21.270;2024-03-07T01:46:33;101573.88;;;20.11
76009;BMP280;64700;52.130;21.270;2024-03-07T01:48:59;101572.03;;;20.07
76009;BMP280;64700;52.130;21.270;2024-03-07T01:51:24;101578.22;;;20.08
76009;BMP280;64700;52.130;21.270;2024-03-07T01:53:50;101578.66;;;20.06
76009;BMP280;64700;52.130;21.270;2024-03-07T01:56:15;101573.22;;;20.06
76009;BMP280;64700;52.130;21.270;2024-03-07T01:58:41;101580.19;;;20.07
76009;BMP280;64700;52.130;21.270;2024-03-07T02:01:07;101576.72;;;20.07
76009;BMP280;64700;52.130;21.270;2024-03-07T02:03:33;101574.75;;;20.07
76009;BMP280;64700;52.130;21.270;2024-03-07T02:05:58;101572.03;;;20.07
76009;BMP280;64700;52.130;21.270;2024-03-07T02:08:23;101564.34;;;20.06
76009;BMP280;64700;52.130;21.270;2024-03-07T02:10:48;101570.59;;;20.03
76009;BMP280;64700;52.130;21.270;2024-03-07T02:13:14;101575.63;;;20.04
76009;BMP280;64700;52.130;21.270;2024-03-07T02:15:39;101567.88;;;20.03
76009;BMP280;64700;52.130;21.270;2024-03-07T02:18:04;101571.38;;;20.03
76009;BMP280;64700;52.130;21.270;2024-03-07T02:20:30;101573.31;;;20.03
76009;BMP280;64700;52.130;21.270;2024-03-07T02:22:55;101572.53;;;20.02
76009;BMP280;64700;52.130;21.270;2024-03-07T02:25:21;101564.84;;;20.01
76009;BMP280;64700;52.130;21.270;2024-03-07T02:27:46;101567.88;;;20.03
76009;BMP280;64700;52.130;21.270;2024-03-07T02:30:12;101570.28;;;20.01
76009;BMP280;64700;52.130;21.270;2024-03-07T02:32:37;101568.75;;;20.00
76009;BMP280;64700;52.130;21.270;2024-03-07T02:35:03;101572.53;;;20.02
76009;BMP280;64700;52.130;21.270;2024-03-07T02:37:28;101569.53;;;20.00
76009;BMP280;64700;52.130;21.270;2024-03-07T02:39:54;101575.72;;;20.01
76009;BMP280;64700;52.130;21.270;2024-03-07T02:42:19;101578.84;;;19.99
76009;BMP280;64700;52.130;21.270;2024-03-07T02:44:44;101574.59;;;19.98
76009;BMP280;64700;52.130;21.270;2024-03-07T02:47:09;101570.41;;;19.97
76009;BMP280;64700;52.130;21.270;2024-03-07T02:49:35;101573.09;;;19.97
76009;BMP280;64700;52.130;21.270;2024-03-07T02:52:00;101586.69;;;19.97
76009;BMP280;64700;52.130;21.270;2024-03-07T02:54:25;101575.81;;;19.97
76009;BMP280;64700;52.130;21.270;2024-03-07T02:56:50;101579.72;;;19.96
76009;BMP280;64700;52.130;21.270;2024-03-07T02:59:15;101578.19;;;19.95
76009;BMP280;64700;52.130;21.270;2024-03-07T03:01:41;101585.56;;;19.95
76009;BMP280;64700;52.130;21.270;2024-03-07T03:04:06;101578.63;;;19.94
76009;BMP280;64700;52.130;21.270;2024-03-07T03:06:32;101578.63;;;19.94
76009;BMP280;64700;52.130;21.270;2024-03-07T03:08:57;101585.28;;;19.93
76009;BMP280;64700;52.130;21.270;2024-03-07T03:11:23;101582.56;;;19.93
76009;BMP280;64700;52.130;21.270;2024-03-07T03:13:49;101585.28;;;19.93
76009;BMP280;64700;52.130;21.270;2024-03-07T03:16:14;101578.63;;;19.94
76009;BMP280;64700;52.130;21.270;2024-03-07T03:18:40;101581.78;;;19.92
76009;BMP280;64700;52.130;21.270;2024-03-07T03:21:05;101579.50;;;19.91
76009;BMP280;64700;52.130;21.270;2024-03-07T03:23:31;101587.63;;;19.91
76009;BMP280;64700;52.130;21.270;2024-03-07T03:25:56;101592.72;;;19.89
76009;BMP280;64700;52.130;21.270;2024-03-07T03:28:22;101579.16;;;19.89
76009;BMP280;64700;52.130;21.270;2024-03-07T03:30:47;101595.78;;;19.91
76009;BMP280;64700;52.130;21.270;2024-03-07T03:33:13;101586.88;;;19.90
76009;BMP280;64700;52.130;21.270;2024-03-07T03:35:38;101598.50;;;19.91
76009;BMP280;64700;52.130;21.270;2024-03-07T03:38:04;101594.25;;;19.90
76009;BMP280;64700;52.130;21.270;2024-03-07T03:40:29;101599.34;;;19.88
76009;BMP280;64700;52.130;21.270;2024-03-07T03:42:54;101595.88;;;19.87
76009;BMP280;64700;52.130;21.270;2024-03-07T03:45:19;101596.63;;;19.88
76009;BMP280;64700;52.130;21.270;2024-03-07T03:47:45;101595.09;;;19.87
76009;BMP280;64700;52.130;21.270;2024-03-07T03:50:11;101591.63;;;19.86
76009;BMP280;64700;52.130;21.270;2024-03-07T03:52:36;101591.63;;;19.86
76009;BMP280;64700;52.130;21.270;2024-03-07T03:55:02;101592.81;;;19.85
76009;BMP280;64700;52.130;21.270;2024-03-07T03:57:27;101596.28;;;19.86
76009;BMP280;64700;52.130;21.270;2024-03-07T03:59:53;101595.53;;;19.85
76009;BMP280;64700;52.130;21.270;2024-03-07T04:02:19;101597.06;;;19.86
76009;BMP280;64700;52.130;21.270;2024-03-07T04:04:44;101597.06;;;19.86
76009;BMP280;64700;52.130;21.270;2024-03-07T04:07:13;101595.53;;;19.85
76009;BMP280;64700;52.130;21.270;2024-03-07T04:09:38;101597.47;;;19.85
76009;BMP280;64700;52.130;21.270;2024-03-07T04:12:03;101594.03;;;19.84
76009;BMP280;64700;52.130;21.270;2024-03-07T04:14:30;101594.03;;;19.84
76009;BMP280;64700;52.130;21.270;2024-03-07T04:16:57;101595.97;;;19.84
76009;BMP280;64700;52.130;21.270;2024-03-07T04:19:23;101588.25;;;19.82
76009;BMP280;64700;52.130;21.270;2024-03-07T04:21:48;101602.59;;;19.83
76009;BMP280;64700;52.130;21.270;2024-03-07T04:24:13;101600.28;;;19.81
76009;BMP280;64700;52.130;21.270;2024-03-07T04:26:38;101601.81;;;19.82
76009;BMP280;64700;52.130;21.270;2024-03-07T04:29:06;101600.28;;;19.81
76009;BMP280;64700;52.130;21.270;2024-03-07T04:31:32;101602.69;;;19.79
76009;BMP280;64700;52.130;21.270;2024-03-07T04:33:57;101591.84;;;19.79
76009;BMP280;64700;52.130;21.270;2024-03-07T04:36:23;101600.75;;;19.80
76009;BMP280;64700;52.130;21.270;2024-03-07T04:38:48;101602.69;;;19.79
76009;BMP280;64700;52.130;21.270;2024-03-07T04:41:13;101603.88;;;19.78
76009;BMP280;64700;52.130;21.270;2024-03-07T04:43:40;101599.63;;;19.77
76009;BMP280;64700;52.130;21.270;2024-03-07T04:46:07;101596.94;;;19.77
76009;BMP280;64700;52.130;21.270;2024-03-07T04:48:32;101605.06;;;19.77
76009;BMP280;64700;52.130;21.270;2024-03-07T04:50:57;101601.28;;;19.75
76009;BMP280;64700;52.130;21.270;2024-03-07T04:53:23;101599.63;;;19.77
76009;BMP280;64700;52.130;21.270;2024-03-07T04:55:48;101605.06;;;19.77
76009;BMP280;64700;52.130;21.270;2024-03-07T04:58:13;101614.75;;;19.78
76009;BMP280;64700;52.130;21.270;2024-03-07T05:00:38;101603.53;;;19.76
76009;BMP280;64700;52.130;21.270;2024-03-07T05:03:04;101611.25;;;19.78
76009;BMP280;64700;52.130;21.270;2024-03-07T05:05:29;101614.75;;;19.78
76009;BMP280;64700;52.130;21.270;2024-03-07T05:07:55;101603.88;;;19.78
76009;BMP280;64700;52.130;21.270;2024-03-07T05:10:21;101603.13;;;19.78
76009;BMP280;64700;52.130;21.270;2024-03-07T05:12:46;101610.06;;;19.79
76009;BMP280;64700;52.130;21.270;2024-03-07T05:15:11;101613.56;;;19.79
76009;BMP280;64700;52.130;21.270;2024-03-07T05:17:36;101614.31;;;19.80
76009;BMP280;64700;52.130;21.270;2024-03-07T05:20:04;101617.03;;;19.80
76009;BMP280;64700;52.130;21.270;2024-03-07T05:22:35;101615.41;;;19.82
76009;BMP280;64700;52.130;21.270;2024-03-07T05:25:00;101617.69;;;19.84
76009;BMP280;64700;52.130;21.270;2024-03-07T05:27:25;101620.41;;;19.84
76009;BMP280;64700;52.130;21.270;2024-03-07T05:29:52;101623.88;;;19.84
76009;BMP280;64700;52.130;21.270;2024-03-07T05:32:19;101633.09;;;19.87
76009;BMP280;64700;52.130;21.270;2024-03-07T05:34:44;101624.97;;;19.87
76009;BMP280;64700;52.130;21.270;2024-03-07T05:37:09;101628.03;;;19.89
76009;BMP280;64700;52.130;21.270;2024-03-07T05:39:35;101623.69;;;19.91
76009;BMP280;64700;52.130;21.270;2024-03-07T05:42:00;101623.69;;;19.91
76009;BMP280;64700;52.130;21.270;2024-03-07T05:44:25;101629.03;;;19.95
76009;BMP280;64700;52.130;21.270;2024-03-07T05:46:51;101623.16;;;19.96
76009;BMP280;64700;52.130;21.270;2024-03-07T05:49:16;101633.16;;;19.99
76009;BMP280;64700;52.130;21.270;2024-03-07T05:51:42;101633.41;;;20.05
76009;BMP280;64700;52.130;21.270;2024-03-07T05:54:09;101631.34;;;20.09
76009;BMP280;64700;52.130;21.270;2024-03-07T05:56:35;101639.50;;;20.09
76009;BMP280;64700;52.130;21.270;2024-03-07T05:59:03;101629.84;;;20.08
76009;BMP280;64700;52.130;21.270;2024-03-07T06:01:34;101634.84;;;20.10
76009;BMP280;64700;52.130;21.270;2024-03-07T06:04:00;101630.16;;;20.10
76009;BMP280;64700;52.130;21.270;2024-03-07T06:06:26;101628.88;;;20.15
76009;BMP280;64700;52.130;21.270;2024-03-07T06:08:51;101636.69;;;20.13
76009;BMP280;64700;52.130;21.270;2024-03-07T06:11:17;101631.59;;;20.15
76009;BMP280;64700;52.130;21.270;2024-03-07T06:13:46;101637.03;;;20.15
76009;BMP280;64700;52.130;21.270;2024-03-07T06:16:11;101640.81;;;20.17
76009;BMP280;64700;52.130;21.270;2024-03-07T06:18:36;101638.88;;;20.18
76009;BMP280;64700;52.130;21.270;2024-03-07T06:21:02;101643.56;;;20.30
76009;BMP280;64700;52.130;21.270;2024-03-07T06:23:29;101646.09;;;20.37
76009;BMP280;64700;52.130;21.270;2024-03-07T06:25:55;101651.22;;;20.47
76009;BMP280;64700;52.130;21.270;2024-03-07T06:28:21;101638.47;;;20.44
76009;BMP280;64700;52.130;21.270;2024-03-07T06:30:46;101649.03;;;20.42
76009;BMP280;64700;52.130;21.270;2024-03-07T06:33:12;101641.75;;;20.39
76009;BMP280;64700;52.130;21.270;2024-03-07T06:35:37;101642.19;;;20.38
76009;BMP280;64700;52.130;21.270;2024-03-07T06:38:07;101645.66;;;20.38
76009;BMP280;64700;52.130;21.270;2024-03-07T06:40:33;101648.69;;;20.40
76009;BMP280;64700;52.130;21.270;2024-03-07T06:42:58;101651.88;;;20.39
76009;BMP280;64700;52.130;21.270;2024-03-07T06:45:24;101648.38;;;20.38
76009;BMP280;64700;52.130;21.270;2024-03-07T06:47:49;101646.97;;;20.34
76009;BMP280;64700;52.130;21.270;2024-03-07T06:50:14;101649.69;;;20.34
76009;BMP280;64700;52.130;21.270;2024-03-07T06:52:44;101639.66;;;20.31
76009;BMP280;64700;52.130;21.270;2024-03-07T06:55:09;101644.75;;;20.29
76009;BMP280;64700;52.130;21.270;2024-03-07T06:57:34;101644.75;;;20.29
76009;BMP280;64700;52.130;21.270;2024-03-07T07:00:00;101640.97;;;20.26
76009;BMP280;64700;52.130;21.270;2024-03-07T07:02:25;101646.72;;;20.28
76009;BMP280;64700;52.130;21.270;2024-03-07T07:04:52;101656.38;;;20.29
76009;BMP280;64700;52.130;21.270;2024-03-07T07:07:18;101650.66;;;20.27
76009;BMP280;64700;52.130;21.270;2024-03-07T07:09:44;101652.16;;;20.28
76009;BMP280;64700;52.130;21.270;2024-03-07T07:12:09;101652.59;;;20.27
76009;BMP280;64700;52.130;21.270;2024-03-07T07:14:34;101659.22;;;20.26
76009;BMP280;64700;52.130;21.270;2024-03-07T07:17:01;101655.41;;;20.23
76009;BMP280;64700;52.130;21.270;2024-03-07T07:19:26;101656.91;;;20.24
76009;BMP280;64700;52.130;21.270;2024-03-07T07:21:51;101653.13;;;20.22
76009;BMP280;64700;52.130;21.270;2024-03-07T07:24:19;101653.91;;;20.22
76009;BMP280;64700;52.130;21.270;2024-03-07T07:26:46;101660.50;;;20.21
76009;BMP280;64700;52.130;21.270;2024-03-07T07:29:11;101651.59;;;20.21
76009;BMP280;64700;52.130;21.270;2024-03-07T07:31:37;101661.69;;;20.20
76009;BMP280;64700;52.130;21.270;2024-03-07T07:34:02;101655.84;;;20.22
76009;BMP280;64700;52.130;21.270;2024-03-07T07:36:29;101657.44;;;20.19
76009;BMP280;64700;52.130;21.270;2024-03-07T07:38:54;101654.00;;;20.19
76009;BMP280;64700;52.130;21.270;2024-03-07T07:41:19;101649.72;;;20.18
76009;BMP280;64700;52.130;21.270;2024-03-07T07:43:44;101657.88;;;20.18
76009;BMP280;64700;52.130;21.270;2024-03-07T07:46:10;101661.34;;;20.18
76009;BMP280;64700;52.130;21.270;2024-03-07T07:48:35;101653.63;;;20.17
76009;BMP280;64700;52.130;21.270;2024-03-07T07:51:00;101656.72;;;20.19
76009;BMP280;64700;52.130;21.270;2024-03-07T07:53:25;101657.13;;;20.17
76009;BMP280;64700;52.130;21.270;2024-03-07T07:55:50;101655.59;;;20.16
76009;BMP280;64700;52.130;21.270;2024-03-07T07:58:16;101653.22;;;20.18
76009;BMP280;64700;52.130;21.270;2024-03-07T08:00:41;101657.13;;;20.17
76009;BMP280;64700;52.130;21.270;2024-03-07T08:03:09;101656.72;;;20.19
76009;BMP280;64700;52.130;21.270;2024-03-07T08:05:36;101656.72;;;20.19
76009;BMP280;64700;52.130;21.270;2024-03-07T08:08:02;101652.03;;;20.19
76009;BMP280;64700;52.130;21.270;2024-03-07T08:10:29;101651.19;;;20.22
76009;BMP280;64700;52.130;21.270;2024-03-07T08:12:55;101662.81;;;20.23
76009;BMP280;64700;52.130;21.270;2024-03-07T08:15:21;101661.94;;;20.26
76009;BMP280;64700;52.130;21.270;2024-03-07T08:17:46;101652.25;;;20.25
76009;BMP280;64700;52.130;21.270;2024-03-07T08:20:12;101656.06;;;20.27
76009;BMP280;64700;52.130;21.270;2024-03-07T08:22:41;101655.31;;;20.27
76009;BMP280;64700;52.130;21.270;2024-03-07T08:25:07;101658.34;;;20.29
76009;BMP280;64700;52.130;21.270;2024-03-07T08:27:34;101646.72;;;20.28
76009;BMP280;64700;52.130;21.270;2024-03-07T08:29:59;101655.63;;;20.29
76009;BMP280;64700;52.130;21.270;2024-03-07T08:32:24;101652.91;;;20.29
76009;BMP280;64700;52.130;21.270;2024-03-07T08:34:50;101655.19;;;20.30
76009;BMP280;64700;52.130;21.270;2024-03-07T08:37:16;101656.38;;;20.29
76009;BMP280;64700;52.130;21.270;2024-03-07T08:39:41;101647.06;;;20.30
76009;BMP280;64700;52.130;21.270;2024-03-07T08:42:06;101650.94;;;20.29
76009;BMP280;64700;52.130;21.270;2024-03-07T08:44:31;101654.44;;;20.30
76009;BMP280;64700;52.130;21.270;2024-03-07T08:46:57;101654.44;;;20.30
76009;BMP280;64700;52.130;21.270;2024-03-07T08:49:22;101652.91;;;20.29
76009;BMP280;64700;52.130;21.270;2024-03-07T08:51:47;101647.81;;;20.31
76009;BMP280;64700;52.130;21.270;2024-03-07T08:54:12;101643.56;;;20.30
76009;BMP280;64700;52.130;21.270;2024-03-07T08:56:38;101656.72;;;20.31
76009;BMP280;64700;52.130;21.270;2024-03-07T08:59:04;101640.09;;;20.29
76009;BMP280;64700;52.130;21.270;2024-03-07T09:01:29;101640.09;;;20.29
76009;BMP280;64700;52.130;21.270;2024-03-07T09:03:54;101639.31;;;20.29
76009;BMP280;64700;52.130;21.270;2024-03-07T09:06:19;101645.53;;;20.29
76009;BMP280;64700;52.130;21.270;2024-03-07T09:08:45;101653.66;;;20.29
76009;BMP280;64700;52.130;21.270;2024-03-07T09:11:10;101643.22;;;20.28
76009;BMP280;64700;52.130;21.270;2024-03-07T09:13:35;101644.00;;;20.28
76009;BMP280;64700;52.130;21.270;2024-03-07T09:16:00;101634.66;;;20.29
76009;BMP280;64700;52.130;21.270;2024-03-07T09:18:30;101643.16;;;20.31
76009;BMP280;64700;52.130;21.270;2024-03-07T09:20:55;101626.84;;;20.31
76009;BMP280;64700;52.130;21.270;2024-03-07T09:23:20;101630.28;;;20.32
76009;BMP280;64700;52.130;21.270;2024-03-07T09:25:45;101634.53;;;20.33
76009;BMP280;64700;52.130;21.270;2024-03-07T09:28:10;101635.69;;;20.35
76009;BMP280;64700;52.130;21.270;2024-03-07T09:30:35;101636.44;;;20.36
76009;BMP280;64700;52.130;21.270;2024-03-07T09:33:03;101626.66;;;20.38
76009;BMP280;64700;52.130;21.270;2024-03-07T09:35:29;101643.25;;;20.40
76009;BMP280;64700;52.130;21.270;2024-03-07T09:37:54;101640.88;;;20.42
76009;BMP280;64700;52.130;21.270;2024-03-07T09:40:19;101638.06;;;20.46
76009;BMP280;64700;52.130;21.270;2024-03-07T09:42:49;101633.75;;;20.48
76009;BMP280;64700;52.130;21.270;2024-03-07T09:45:18;101639.06;;;20.52
76009;BMP280;64700;52.130;21.270;2024-03-07T09:47:45;101646.75;;;20.54
76009;BMP280;64700;52.130;21.270;2024-03-07T09:50:11;101630.38;;;20.57
76009;BMP280;64700;52.130;21.270;2024-03-07T09:52:36;101643.09;;;20.60
76009;BMP280;64700;52.130;21.270;2024-03-07T09:55:01;101634.84;;;20.64
76009;BMP280;64700;52.130;21.270;2024-03-07T09:57:27;101641.81;;;20.65
76009;BMP280;64700;52.130;21.270;2024-03-07T09:59:54;101642.13;;;20.67
76009;BMP280;64700;52.130;21.270;2024-03-07T10:02:20;101643.63;;;20.68
76009;BMP280;64700;52.130;21.270;2024-03-07T10:04:50;101638.50;;;20.70
76009;BMP280;64700;52.130;21.270;2024-03-07T10:07:16;101635.69;;;20.73
76009;BMP280;64700;52.130;21.270;2024-03-07T10:09:41;101636.78;;;20.76
76009;BMP280;64700;52.130;21.270;2024-03-07T10:12:07;101635.91;;;20.79
76009;BMP280;64700;52.130;21.270;2024-03-07T10:14:34;101628.88;;;20.81
76009;BMP280;64700;52.130;21.270;2024-03-07T10:17:00;101629.50;;;20.85
76009;BMP280;64700;52.130;21.270;2024-03-07T10:19:25;101638.72;;;20.88
76009;BMP280;64700;52.130;21.270;2024-03-07T10:21:50;101638.72;;;20.88
76009;BMP280;64700;52.130;21.270;2024-03-07T10:24:17;101629.63;;;20.82
76009;BMP280;64700;52.130;21.270;2024-03-07T10:26:42;101630.59;;;20.88
76009;BMP280;64700;52.130;21.270;2024-03-07T10:29:08;101621.47;;;20.82
76009;BMP280;64700;52.130;21.270;2024-03-07T10:31:33;101625.13;;;20.75
76009;BMP280;64700;52.130;21.270;2024-03-07T10:33:59;101618.00;;;20.69
76009;BMP280;64700;52.130;21.270;2024-03-07T10:36:25;101630.81;;;20.68
76009;BMP280;64700;52.130;21.270;2024-03-07T10:38:50;101622.00;;;20.64
76009;BMP280;64700;52.130;21.270;2024-03-07T10:41:15;101622.31;;;20.66
76009;BMP280;64700;52.130;21.270;2024-03-07T10:43:40;101626.44;;;20.71
76009;BMP280;64700;52.130;21.270;2024-03-07T10:46:08;101624.84;;;20.73
76009;BMP280;64700;52.130;21.270;2024-03-07T10:48:36;101618.63;;;20.73
76009;BMP280;64700;52.130;21.270;2024-03-07T10:51:26;101628.53;;;20.67
76009;BMP280;64700;52.130;21.270;2024-03-07T10:54:10;101608.06;;;20.62
76009;BMP280;64700;52.130;21.270;2024-03-07T10:56:47;101613.50;;;20.62
76009;BMP280;64700;52.130;21.270;2024-03-07T10:59:18;101614.38;;;20.59
76009;BMP280;64700;52.130;21.270;2024-03-07T11:01:53;101617.09;;;20.59
76009;BMP280;64700;52.130;21.270;2024-03-07T11:04:22;101611.44;;;20.54
76009;BMP280;64700;52.130;21.270;2024-03-07T11:06:47;101613.84;;;20.52
76009;BMP280;64700;52.130;21.270;2024-03-07T11:09:14;101611.91;;;20.52
76009;BMP280;64700;52.130;21.270;2024-03-07T11:11:47;101616.22;;;20.49
76009;BMP280;64700;52.130;21.270;2024-03-07T11:14:13;101610.78;;;20.49
76009;BMP280;64700;52.130;21.270;2024-03-07T11:16:40;101607.31;;;20.49
76009;BMP280;64700;52.130;21.270;2024-03-07T11:19:17;101617.84;;;20.47
76009;BMP280;64700;52.130;21.270;2024-03-07T11:21:43;101603.59;;;20.43
76009;BMP280;64700;52.130;21.270;2024-03-07T11:24:08;101607.84;;;20.44
76009;BMP280;64700;52.130;21.270;2024-03-07T11:26:34;101601.66;;;20.43
76009;BMP280;64700;52.130;21.270;2024-03-07T11:28:59;101603.59;;;20.43
76009;BMP280;64700;52.130;21.270;2024-03-07T11:31:27;101604.38;;;20.43
76009;BMP280;64700;52.130;21.270;2024-03-07T11:36:42;101591.97;;;20.42
76009;BMP280;64700;52.130;21.270;2024-03-07T11:39:22;101598.28;;;20.39
76009;BMP280;64700;52.130;21.270;2024-03-07T11:41:56;101608.69;;;20.41
76009;BMP280;64700;52.130;21.270;2024-03-07T11:44:21;101593.63;;;20.40
76009;BMP280;64700;52.130;21.270;2024-03-07T11:46:46;101584.25;;;20.41
76009;BMP280;64700;52.130;21.270;2024-03-07T11:49:12;101585.78;;;20.42
76009;BMP280;64700;52.130;21.270;2024-03-07T11:51:38;101595.13;;;20.41
76009;BMP280;64700;52.130;21.270;2024-03-07T11:54:03;101582.00;;;20.39
76009;BMP280;64700;52.130;21.270;2024-03-07T11:56:29;101581.22;;;20.39
76009;BMP280;64700;52.130;21.270;2024-03-07T11:58:55;101584.72;;;20.39
76009;BMP280;64700;52.130;21.270;2024-03-07T12:01:22;101579.69;;;20.38
76009;BMP280;64700;52.130;21.270;2024-03-07T12:03:50;101584.38;;;20.37
76009;BMP280;64700;52.130;21.270;2024-03-07T12:06:17;101580.88;;;20.37
76009;BMP280;64700;52.130;21.270;2024-03-07T12:08:44;101579.28;;;20.39
76009;BMP280;64700;52.130;21.270;2024-03-07T12:11:10;101590.13;;;20.39
76009;BMP280;64700;52.130;21.270;2024-03-07T12:13:40;101571.88;;;20.40
76009;BMP280;64700;52.130;21.270;2024-03-07T12:16:05;101571.53;;;20.38
76009;BMP280;64700;52.130;21.270;2024-03-07T12:18:32;101580.03;;;20.40
76009;BMP280;64700;52.130;21.270;2024-03-07T12:20:58;101576.97;;;20.38
76009;BMP280;64700;52.130;21.270;2024-03-07T12:23:25;101575.78;;;20.39
76009;BMP280;64700;52.130;21.270;2024-03-07T12:26:03;101570.03;;;20.37
76009;BMP280;64700;52.130;21.270;2024-03-07T12:28:28;101571.53;;;20.38
76009;BMP280;64700;52.130;21.270;2024-03-07T12:30:58;101569.25;;;20.36
76009;BMP280;64700;52.130;21.270;2024-03-07T12:33:27;101570.91;;;20.34
76009;BMP280;64700;52.130;21.270;2024-03-07T12:35:53;101571.66;;;20.34
76009;BMP280;64700;52.130;21.270;2024-03-07T12:38:25;101564.66;;;20.33
76009;BMP280;64700;52.130;21.270;2024-03-07T12:41:05;101567.81;;;20.32
76009;BMP280;64700;52.130;21.270;2024-03-07T12:43:32;101563.16;;;20.32
76009;BMP280;64700;52.130;21.270;2024-03-07T12:45:57;101562.06;;;20.30
76009;BMP280;64700;52.130;21.270;2024-03-07T12:48:23;101564.78;;;20.30
76009;BMP280;64700;52.130;21.270;2024-03-07T12:50:49;101567.50;;;20.30
76009;BMP280;64700;52.130;21.270;2024-03-07T12:53:18;101562.06;;;20.30
76009;BMP280;64700;52.130;21.270;2024-03-07T12:55:43;101546.19;;;20.28
76009;BMP280;64700;52.130;21.270;2024-03-07T12:58:09;101552.41;;;20.29
76009;BMP280;64700;52.130;21.270;2024-03-07T13:00:36;101552.28;;;20.32
76009;BMP280;64700;52.130;21.270;2024-03-07T13:03:01;101544.88;;;20.33
76009;BMP280;64700;52.130;21.270;2024-03-07T13:05:27;101557.41;;;20.30
76009;BMP280;64700;52.130;21.270;2024-03-07T13:07:52;101552.28;;;20.32
76009;BMP280;64700;52.130;21.270;2024-03-07T13:10:17;101557.72;;;20.32
76009;BMP280;64700;52.130;21.270;2024-03-07T13:12:44;101542.28;;;20.29
76009;BMP280;64700;52.130;21.270;2024-03-07T13:15:10;101546.09;;;20.32
76009;BMP280;64700;52.130;21.270;2024-03-07T13:17:35;101543.38;;;20.32
76009;BMP280;64700;52.130;21.270;2024-03-07T13:20:01;101540.22;;;20.33
76009;BMP280;64700;52.130;21.270;2024-03-07T13:22:26;101539.47;;;20.33
76009;BMP280;64700;52.130;21.270;2024-03-07T13:24:51;101545.66;;;20.33
76009;BMP280;64700;52.130;21.270;2024-03-07T13:27:16;101544.81;;;20.36
76009;BMP280;64700;52.130;21.270;2024-03-07T13:29:47;101534.78;;;20.33
76009;BMP280;64700;52.130;21.270;2024-03-07T13:32:14;101534.03;;;20.33
76009;BMP280;64700;52.130;21.270;2024-03-07T13:34:39;101534.78;;;20.33
76009;BMP280;64700;52.130;21.270;2024-03-07T13:37:05;101530.16;;;20.34
76009;BMP280;64700;52.130;21.270;2024-03-07T13:39:30;101532.44;;;20.35
76009;BMP280;64700;52.130;21.270;2024-03-07T13:41:55;101533.22;;;20.36